sensor_id;sensor_type;location;lat;lon;timestamp;pressure;altitude;pressure_sealevel;temperature;humidity
42859;BME280;28505;56.970;40.998;2023-03-23T00:03:30;99656.25;;;0.28;100.00
42859;BME280;28505;56.970;40.998;2023-03-23T00:08:54;99653.00;;;0.26;100.00
42859;BME280;28505;56.970;40.998;2023-03-23T00:14:19;99659.03;;;0.21;100.00
42859;BME280;28505;56.970;40.998;2023-03-23T00:19:43;99647.50;;;0.16;100.00
42859;BME280;28505;56.970;40.998;2023-03-23T00:25:07;99649.59;;;0.14;100.00
42859;BME280;28505;56.970;40.998;2023-03-23T00:30:29;99648.66;;;0.08;100.00
42859;BME280;28505;56.970;40.998;2023-03-23T00:35:50;99655.22;;;0.06;100.00
42859;BME280;28505;56.970;40.998;2023-03-23T00:41:13;99632.31;;;-0.01;100.00
42859;BME280;28505;56.970;40.998;2023-03-23T00:46:35;99645.22;;;0.08;100.00
42859;BME280;28505;56.970;40.998;2023-03-23T00:52:06;99656.03;;;0.18;100.00
42859;BME280;28505;56.970;40.998;2023-03-23T00:57:27;99654.31;;;0.23;100.00
42859;BME280;28505;56.970;40.998;2023-03-23T01:02:49;99648.41;;;0.33;100.00
42859;BME280;28505;56.970;40.998;2023-03-23T01:08:18;99644.84;;;0.39;100.00
42859;BME280;28505;56.970;40.998;2023-03-23T01:13:40;99635.25;;;0.38;100.00
42859;BME280;28505;56.970;40.998;2023-03-23T01:19:02;99622.69;;;0.34;100.00
42859;BME280;28505;56.970;40.998;2023-03-23T01:24:22;99613.16;;;0.21;100.00
42859;BME280;28505;56.970;40.998;2023-03-23T01:29:43;99625.47;;;0.27;100.00
42859;BME280;28505;56.970;40.998;2023-03-23T01:35:05;99620.06;;;0.22;100.00
42859;BME280;28505;56.970;40.998;2023-03-23T01:40:26;99616.94;;;0.25;100.00
42859;BME280;28505;56.970;40.998;2023-03-23T01:45:48;99607.28;;;0.19;100.00
42859;BME280;28505;56.970;40.998;2023-03-23T01:51:14;99602.78;;;0.19;100.00
42859;BME280;28505;56.970;40.998;2023-03-23T01:56:47;99620.19;;;0.27;100.00
42859;BME280;28505;56.970;40.998;2023-03-23T02:02:09;99611.97;;;0.29;100.00
42859;BME280;28505;56.970;40.998;2023-03-23T02:07:31;99602.19;;;0.29;100.00
42859;BME280;28505;56.970;40.998;2023-03-23T02:12:56;99598.72;;;0.29;100.00
42859;BME280;28505;56.970;40.998;2023-03-23T02:19:01;99601.34;;;0.40;100.00
42859;BME280;28505;56.970;40.998;2023-03-23T02:35:35;99587.06;;;0.70;100.00
42859;BME280;28505;56.970;40.998;2023-03-23T02:41:01;99585.06;;;0.77;100.00
42859;BME280;28505;56.970;40.998;2023-03-23T02:46:23;99592.09;;;0.83;100.00
42859;BME280;28505;56.970;40.998;2023-03-23T02:51:46;99599.00;;;0.84;100.00
42859;BME280;28505;56.970;40.998;2023-03-23T02:57:09;99577.34;;;0.76;100.00
42859;BME280;28505;56.970;40.998;2023-03-23T03:02:36;99578.41;;;0.91;100.00
42859;BME280;28505;56.970;40.998;2023-03-23T03:14:09;99569.81;;;1.01;100.00
42859;BME280;28505;56.970;40.998;2023-03-23T03:19:37;99563.16;;;0.99;100.00
42859;BME280;28505;56.970;40.998;2023-03-23T03:25:00;99559.28;;;0.89;100.00
42859;BME280;28505;56.970;40.998;2023-03-23T03:30:27;99572.47;;;1.01;100.00
42859;BME280;28505;56.970;40.998;2023-03-23T03:35:53;99567.91;;;0.97;100.00
42859;BME280;28505;56.970;40.998;2023-03-23T03:41:17;99578.63;;;1.02;100.00
42859;BME280;28505;56.970;40.998;2023-03-23T03:46:40;99576.03;;;1.07;100.00
42859;BME280;28505;56.970;40.998;2023-03-23T03:52:02;99567.44;;;1.16;100.00
42859;BME280;28505;56.970;40.998;2023-03-23T03:57:31;99567.28;;;1.23;100.00
42859;BME280;28505;56.970;40.998;2023-03-23T04:02:58;99550.84;;;1.26;100.00
42859;BME280;28505;56.970;40.998;2023-03-23T04:08:45;99553.13;;;1.34;100.00
42859;BME280;28505;56.970;40.998;2023-03-23T04:14:06;99534.41;;;1.46;100.00
42859;BME280;28505;56.970;40.998;2023-03-23T04:19:38;99557.41;;;1.74;100.00
42859;BME280;28505;56.970;40.998;2023-03-23T04:25:01;99562.38;;;1.87;100.00
42859;BME280;28505;56.970;40.998;2023-03-23T04:30:30;99535.97;;;1.81;100.00
42859;BME280;28505;56.970;40.998;2023-03-23T04:36:01;99547.13;;;2.00;100.00
42859;BME280;28505;56.970;40.998;2023-03-23T04:41:30;99540.38;;;2.14;100.00
42859;BME280;28505;56.970;40.998;2023-03-23T04:47:09;99537.41;;;2.32;100.00
42859;BME280;28505;56.970;40.998;2023-03-23T04:52:42;99525.41;;;2.30;100.00
42859;BME280;28505;56.970;40.998;2023-03-23T04:58:08;99534.47;;;2.56;100.00
42859;BME280;28505;56.970;40.998;2023-03-23T05:03:36;99554.06;;;3.04;100.00
42859;BME280;28505;56.970;40.998;2023-03-23T05:08:57;99550.47;;;3.20;100.00
42859;BME280;28505;56.970;40.998;2023-03-23T05:14:18;99541.97;;;3.23;100.00
42859;BME280;28505;56.970;40.998;2023-03-23T05:19:47;99560.63;;;3.61;100.00
42859;BME280;28505;56.970;40.998;2023-03-23T05:25:42;99547.47;;;3.86;100.00
42859;BME280;28505;56.970;40.998;2023-03-23T05:31:09;99558.13;;;3.86;100.00
42859;BME280;28505;56.970;40.998;2023-03-23T05:36:30;99539.94;;;3.78;100.00
42859;BME280;28505;56.970;40.998;2023-03-23T05:42:10;99548.50;;;3.85;100.00
42859;BME280;28505;56.970;40.998;2023-03-23T05:47:52;99560.59;;;4.03;100.00
42859;BME280;28505;56.970;40.998;2023-03-23T05:53:14;99520.56;;;3.93;100.00
42859;BME280;28505;56.970;40.998;2023-03-23T05:58:36;99533.22;;;4.23;100.00
42859;BME280;28505;56.970;40.998;2023-03-23T06:03:58;99546.91;;;4.52;100.00
42859;BME280;28505;56.970;40.998;2023-03-23T06:09:33;99550.16;;;4.80;100.00
42859;BME280;28505;56.970;40.998;2023-03-23T06:15:12;99535.22;;;5.09;100.00
42859;BME280;28505;56.970;40.998;2023-03-23T06:20:51;99537.09;;;5.29;100.00
42859;BME280;28505;56.970;40.998;2023-03-23T06:26:39;99550.44;;;5.45;100.00
42859;BME280;28505;56.970;40.998;2023-03-23T06:32:09;99535.19;;;5.60;100.00
42859;BME280;28505;56.970;40.998;2023-03-23T06:37:31;99527.66;;;5.83;100.00
42859;BME280;28505;56.970;40.998;2023-03-23T06:43:00;99529.50;;;6.03;100.00
42859;BME280;28505;56.970;40.998;2023-03-23T06:48:48;99533.41;;;6.21;100.00
42859;BME280;28505;56.970;40.998;2023-03-23T06:54:14;99529.38;;;6.28;100.00
42859;BME280;28505;56.970;40.998;2023-03-23T06:59:37;99526.91;;;6.42;100.00
42859;BME280;28505;56.970;40.998;2023-03-23T07:04:58;99527.41;;;6.49;100.00
42859;BME280;28505;56.970;40.998;2023-03-23T07:10:19;99526.00;;;6.57;100.00
42859;BME280;28505;56.970;40.998;2023-03-23T07:15:41;99505.94;;;6.54;100.00
42859;BME280;28505;56.970;40.998;2023-03-23T07:21:01;99523.28;;;6.67;100.00
42859;BME280;28505;56.970;40.998;2023-03-23T07:26:25;99500.47;;;6.75;100.00
42859;BME280;28505;56.970;40.998;2023-03-23T07:31:48;99518.56;;;6.93;100.00
42859;BME280;28505;56.970;40.998;2023-03-23T07:37:10;99491.78;;;6.88;100.00
42859;BME280;28505;56.970;40.998;2023-03-23T07:42:34;99511.00;;;7.00;100.00
42859;BME280;28505;56.970;40.998;2023-03-23T07:47:55;99506.38;;;7.06;100.00
42859;BME280;28505;56.970;40.998;2023-03-23T07:53:16;99507.94;;;7.12;100.00
42859;BME280;28505;56.970;40.998;2023-03-23T07:58:43;99495.41;;;7.02;100.00
42859;BME280;28505;56.970;40.998;2023-03-23T08:04:05;99466.22;;;7.01;100.00
42859;BME280;28505;56.970;40.998;2023-03-23T08:09:47;99463.91;;;6.89;100.00
42859;BME280;28505;56.970;40.998;2023-03-23T08:15:32;99468.47;;;6.89;100.00
42859;BME280;28505;56.970;40.998;2023-03-23T08:21:07;99465.00;;;6.83;100.00
42859;BME280;28505;56.970;40.998;2023-03-23T08:26:43;99452.25;;;6.70;100.00
42859;BME280;28505;56.970;40.998;2023-03-23T08:32:04;99470.69;;;6.76;100.00
42859;BME280;28505;56.970;40.998;2023-03-23T08:37:46;99461.59;;;6.77;100.00
42859;BME280;28505;56.970;40.998;2023-03-23T08:43:31;99447.97;;;6.74;100.00
42859;BME280;28505;56.970;40.998;2023-03-23T08:49:18;99442.38;;;6.99;100.00
42859;BME280;28505;56.970;40.998;2023-03-23T08:55:02;99433.31;;;6.95;100.00
42859;BME280;28505;56.970;40.998;2023-03-23T09:00:40;99428.81;;;6.91;100.00
42859;BME280;28505;56.970;40.998;2023-03-23T09:06:14;99412.09;;;6.70;100.00
42859;BME280;28505;56.970;40.998;2023-03-23T09:11:41;99409.69;;;6.68;100.00
42859;BME280;28505;56.970;40.998;2023-03-23T09:17:02;99403.78;;;6.71;100.00
42859;BME280;28505;56.970;40.998;2023-03-23T09:22:28;99407.13;;;6.87;100.00
42859;BME280;28505;56.970;40.998;2023-03-23T09:27:57;99401.09;;;7.00;100.00
42859;BME280;28505;56.970;40.998;2023-03-23T09:33:33;99394.88;;;7.05;98.36
42859;BME280;28505;56.970;40.998;2023-03-23T09:39:00;99372.22;;;6.92;98.34
42859;BME280;28505;56.970;40.998;2023-03-23T09:50:35;99336.97;;;6.80;96.25
42859;BME280;28505;56.970;40.998;2023-03-23T09:55:57;99336.38;;;6.88;96.70
42859;BME280;28505;56.970;40.998;2023-03-23T10:01:43;99345.91;;;6.99;96.04
42859;BME280;28505;56.970;40.998;2023-03-23T10:07:14;99340.03;;;6.97;95.77
42859;BME280;28505;56.970;40.998;2023-03-23T10:12:47;99351.97;;;7.10;94.12
42859;BME280;28505;56.970;40.998;2023-03-23T10:24:15;99328.63;;;7.11;92.99
42859;BME280;28505;56.970;40.998;2023-03-23T10:29:42;99316.81;;;7.12;93.70
42859;BME280;28505;56.970;40.998;2023-03-23T10:35:12;99302.97;;;7.04;92.54
42859;BME280;28505;56.970;40.998;2023-03-23T10:40:48;99293.78;;;7.11;93.18
42859;BME280;28505;56.970;40.998;2023-03-23T10:46:36;99329.25;;;7.26;92.17
42859;BME280;28505;56.970;40.998;2023-03-23T10:58:05;99299.56;;;7.23;91.25
42859;BME280;28505;56.970;40.998;2023-03-23T11:09:01;99325.53;;;7.46;88.96
42859;BME280;28505;56.970;40.998;2023-03-23T11:14:29;99329.78;;;7.47;89.58
42859;BME280;28505;56.970;40.998;2023-03-23T11:19:50;99333.00;;;7.49;88.63
42859;BME280;28505;56.970;40.998;2023-03-23T11:25:14;99354.38;;;7.55;88.72
42859;BME280;28505;56.970;40.998;2023-03-23T11:30:38;99345.25;;;7.56;88.03
42859;BME280;28505;56.970;40.998;2023-03-23T11:36:00;99335.09;;;7.53;87.17
42859;BME280;28505;56.970;40.998;2023-03-23T11:41:22;99338.50;;;7.58;86.98
42859;BME280;28505;56.970;40.998;2023-03-23T11:47:00;99338.22;;;7.60;87.86
42859;BME280;28505;56.970;40.998;2023-03-23T11:52:50;99327.94;;;7.67;86.78
42859;BME280;28505;56.970;40.998;2023-03-23T11:58:15;99327.34;;;7.70;85.78
42859;BME280;28505;56.970;40.998;2023-03-23T12:04:37;99319.72;;;7.58;87.87
42859;BME280;28505;56.970;40.998;2023-03-23T12:10:19;99317.13;;;7.53;88.47
42859;BME280;28505;56.970;40.998;2023-03-23T12:15:54;99298.19;;;7.44;89.67
42859;BME280;28505;56.970;40.998;2023-03-23T12:33:17;99293.00;;;7.53;89.66
42859;BME280;28505;56.970;40.998;2023-03-23T12:38:58;99296.31;;;7.45;89.71
42859;BME280;28505;56.970;40.998;2023-03-23T12:44:27;99267.81;;;7.30;90.69
42859;BME280;28505;56.970;40.998;2023-03-23T12:49:57;99272.59;;;7.33;90.57
42859;BME280;28505;56.970;40.998;2023-03-23T13:01:33;99270.16;;;7.37;92.01
42859;BME280;28505;56.970;40.998;2023-03-23T13:06:57;99238.25;;;7.16;92.76
42859;BME280;28505;56.970;40.998;2023-03-23T13:12:29;99248.41;;;7.19;92.88
42859;BME280;28505;56.970;40.998;2023-03-23T13:18:24;99228.16;;;7.08;91.82
42859;BME280;28505;56.970;40.998;2023-03-23T13:23:59;99224.25;;;7.00;93.32
42859;BME280;28505;56.970;40.998;2023-03-23T13:29:25;99244.41;;;7.17;93.00
42859;BME280;28505;56.970;40.998;2023-03-23T13:34:51;99234.47;;;7.17;90.58
42859;BME280;28505;56.970;40.998;2023-03-23T13:40:20;99237.44;;;7.16;90.09
42859;BME280;28505;56.970;40.998;2023-03-23T13:45:53;99234.31;;;7.09;89.87
42859;BME280;28505;56.970;40.998;2023-03-23T13:57:01;99213.56;;;6.95;92.01
42859;BME280;28505;56.970;40.998;2023-03-23T14:02:48;99211.47;;;6.92;91.64
42859;BME280;28505;56.970;40.998;2023-03-23T14:08:13;99175.91;;;6.63;94.10
42859;BME280;28505;56.970;40.998;2023-03-23T14:13:40;99205.97;;;6.84;95.03
42859;BME280;28505;56.970;40.998;2023-03-23T14:19:04;99212.16;;;6.79;95.86
42859;BME280;28505;56.970;40.998;2023-03-23T14:24:40;99195.69;;;6.67;96.69
42859;BME280;28505;56.970;40.998;2023-03-23T14:30:07;99169.91;;;6.52;96.29
42859;BME280;28505;56.970;40.998;2023-03-23T14:35:35;99185.97;;;6.52;95.74
42859;BME280;28505;56.970;40.998;2023-03-23T14:41:04;99180.72;;;6.42;96.80
42859;BME280;28505;56.970;40.998;2023-03-23T14:46:26;99183.00;;;6.53;96.69
42859;BME280;28505;56.970;40.998;2023-03-23T14:51:53;99179.94;;;6.41;97.72
42859;BME280;28505;56.970;40.998;2023-03-23T14:57:18;99147.50;;;6.19;98.52
42859;BME280;28505;56.970;40.998;2023-03-23T15:02:40;99166.13;;;6.29;99.02
42859;BME280;28505;56.970;40.998;2023-03-23T15:08:19;99169.38;;;6.26;99.64
42859;BME280;28505;56.970;40.998;2023-03-23T15:13:45;99167.03;;;6.19;100.00
42859;BME280;28505;56.970;40.998;2023-03-23T15:19:21;99149.22;;;6.09;100.00
42859;BME280;28505;56.970;40.998;2023-03-23T15:24:44;99163.03;;;6.17;100.00
42859;BME280;28505;56.970;40.998;2023-03-23T15:30:19;99175.59;;;6.21;100.00
42859;BME280;28505;56.970;40.998;2023-03-23T15:35:49;99163.38;;;6.10;100.00
42859;BME280;28505;56.970;40.998;2023-03-23T15:41:24;99172.25;;;6.05;100.00
42859;BME280;28505;56.970;40.998;2023-03-23T15:46:50;99147.19;;;5.91;100.00
42859;BME280;28505;56.970;40.998;2023-03-23T15:52:13;99140.31;;;5.85;100.00
42859;BME280;28505;56.970;40.998;2023-03-23T15:57:35;99157.97;;;5.86;100.00
42859;BME280;28505;56.970;40.998;2023-03-23T16:02:59;99151.09;;;5.75;100.00
42859;BME280;28505;56.970;40.998;2023-03-23T16:08:23;99172.91;;;5.92;100.00
42859;BME280;28505;56.970;40.998;2023-03-23T16:13:45;99171.03;;;5.87;100.00
42859;BME280;28505;56.970;40.998;2023-03-23T16:19:11;99157.19;;;5.80;100.00
42859;BME280;28505;56.970;40.998;2023-03-23T16:24:33;99169.72;;;5.85;100.00
42859;BME280;28505;56.970;40.998;2023-03-23T16:29:55;99157.50;;;5.79;100.00
42859;BME280;28505;56.970;40.998;2023-03-23T16:35:24;99175.94;;;5.80;100.00
42859;BME280;28505;56.970;40.998;2023-03-23T16:40:46;99161.31;;;5.68;100.00
42859;BME280;28505;56.970;40.998;2023-03-23T16:46:10;99164.19;;;5.76;100.00
42859;BME280;28505;56.970;40.998;2023-03-23T16:51:34;99152.47;;;5.72;100.00
42859;BME280;28505;56.970;40.998;2023-03-23T16:56:56;99146.03;;;5.73;100.00
42859;BME280;28505;56.970;40.998;2023-03-23T17:02:18;99156.97;;;5.77;100.00
42859;BME280;28505;56.970;40.998;2023-03-23T17:07:40;99160.72;;;5.76;100.00
42859;BME280;28505;56.970;40.998;2023-03-23T17:13:03;99150.53;;;5.78;100.00
42859;BME280;28505;56.970;40.998;2023-03-23T17:18:24;99144.69;;;5.76;100.00
42859;BME280;28505;56.970;40.998;2023-03-23T17:23:47;99139.84;;;5.78;100.00
42859;BME280;28505;56.970;40.998;2023-03-23T17:29:12;99137.00;;;5.69;100.00
42859;BME280;28505;56.970;40.998;2023-03-23T17:34:34;99117.84;;;5.57;100.00
42859;BME280;28505;56.970;40.998;2023-03-23T17:39:56;99116.50;;;5.54;100.00
42859;BME280;28505;56.970;40.998;2023-03-23T17:45:19;99109.59;;;5.48;100.00
42859;BME280;28505;56.970;40.998;2023-03-23T17:50:41;99090.22;;;5.32;100.00
42859;BME280;28505;56.970;40.998;2023-03-23T17:56:04;99110.31;;;5.30;100.00
42859;BME280;28505;56.970;40.998;2023-03-23T18:01:26;99103.66;;;5.22;100.00
42859;BME280;28505;56.970;40.998;2023-03-23T18:06:48;99106.06;;;5.24;100.00
42859;BME280;28505;56.970;40.998;2023-03-23T18:12:10;99087.19;;;5.10;100.00
42859;BME280;28505;56.970;40.998;2023-03-23T18:17:33;99100.28;;;5.11;100.00
42859;BME280;28505;56.970;40.998;2023-03-23T18:22:55;99110.19;;;5.06;100.00
42859;BME280;28505;56.970;40.998;2023-03-23T18:28:19;99085.28;;;5.15;100.00
42859;BME280;28505;56.970;40.998;2023-03-23T18:33:43;99083.13;;;5.18;100.00
42859;BME280;28505;56.970;40.998;2023-03-23T18:39:07;99075.38;;;5.16;100.00
42859;BME280;28505;56.970;40.998;2023-03-23T18:44:31;99078.34;;;5.14;100.00
42859;BME280;28505;56.970;40.998;2023-03-23T18:49:53;99075.19;;;5.07;100.00
42859;BME280;28505;56.970;40.998;2023-03-23T18:55:16;99070.13;;;5.06;100.00
42859;BME280;28505;56.970;40.998;2023-03-23T19:00:41;99064.28;;;5.04;100.00
42859;BME280;28505;56.970;40.998;2023-03-23T19:06:04;99060.84;;;4.98;100.00
42859;BME280;28505;56.970;40.998;2023-03-23T19:11:29;99037.97;;;4.82;100.00
42859;BME280;28505;56.970;40.998;2023-03-23T19:16:51;99056.81;;;5.01;100.00
42859;BME280;28505;56.970;40.998;2023-03-23T19:22:13;99031.28;;;4.84;100.00
42859;BME280;28505;56.970;40.998;2023-03-23T19:27:35;99026.69;;;4.90;100.00
42859;BME280;28505;56.970;40.998;2023-03-23T19:33:17;99029.59;;;4.93;100.00
42859;BME280;28505;56.970;40.998;2023-03-23T19:38:39;99024.03;;;4.90;100.00
42859;BME280;28505;56.970;40.998;2023-03-23T19:44:02;99036.50;;;5.00;100.00
42859;BME280;28505;56.970;40.998;2023-03-23T19:49:24;99033.03;;;4.99;100.00
42859;BME280;28505;56.970;40.998;2023-03-23T19:54:46;99017.25;;;5.03;100.00
42859;BME280;28505;56.970;40.998;2023-03-23T20:00:09;99000.97;;;4.99;100.00
42859;BME280;28505;56.970;40.998;2023-03-23T20:05:34;99007.56;;;5.12;100.00
42859;BME280;28505;56.970;40.998;2023-03-23T20:11:04;99005.13;;;5.15;100.00
42859;BME280;28505;56.970;40.998;2023-03-23T20:16:26;98989.97;;;5.06;100.00
42859;BME280;28505;56.970;40.998;2023-03-23T20:21:49;98988.94;;;5.02;100.00
42859;BME280;28505;56.970;40.998;2023-03-23T20:27:15;98992.66;;;5.06;100.00
42859;BME280;28505;56.970;40.998;2023-03-23T20:32:38;98983.28;;;5.08;100.00
42859;BME280;28505;56.970;40.998;2023-03-23T20:38:02;98988.06;;;5.11;100.00
42859;BME280;28505;56.970;40.998;2023-03-23T20:43:25;98971.84;;;5.03;100.00
42859;BME280;28505;56.970;40.998;2023-03-23T20:48:50;98973.72;;;5.02;100.00
42859;BME280;28505;56.970;40.998;2023-03-23T20:54:13;98979.53;;;5.09;100.00
42859;BME280;28505;56.970;40.998;2023-03-23T20:59:36;98976.06;;;5.09;100.00
42859;BME280;28505;56.970;40.998;2023-03-23T21:04:58;98966.47;;;5.08;100.00
42859;BME280;28505;56.970;40.998;2023-03-23T21:10:24;98965.66;;;5.07;100.00
42859;BME280;28505;56.970;40.998;2023-03-23T21:15:49;98950.75;;;5.01;100.00
42859;BME280;28505;56.970;40.998;2023-03-23T21:21:13;98947.53;;;5.04;100.00
42859;BME280;28505;56.970;40.998;2023-03-23T21:26:35;98937.34;;;5.06;100.00
42859;BME280;28505;56.970;40.998;2023-03-23T21:31:58;98936.78;;;5.09;100.00
42859;BME280;28505;56.970;40.998;2023-03-23T21:37:23;98926.50;;;4.98;100.00
42859;BME280;28505;56.970;40.998;2023-03-23T21:42:48;98926.16;;;5.04;100.00
42859;BME280;28505;56.970;40.998;2023-03-23T21:48:12;98922.38;;;5.10;100.00
42859;BME280;28505;56.970;40.998;2023-03-23T21:53:34;98918.59;;;5.11;100.00
42859;BME280;28505;56.970;40.998;2023-03-23T21:58:57;98913.78;;;5.13;100.00
42859;BME280;28505;56.970;40.998;2023-03-23T22:04:21;98903.38;;;5.12;100.00
42859;BME280;28505;56.970;40.998;2023-03-23T22:09:44;98904.16;;;5.12;100.00
42859;BME280;28505;56.970;40.998;2023-03-23T22:15:08;98897.75;;;5.13;100.00
42859;BME280;28505;56.970;40.998;2023-03-23T22:20:30;98883.59;;;5.13;100.00
42859;BME280;28505;56.970;40.998;2023-03-23T22:25:53;98885.13;;;5.19;100.00
42859;BME280;28505;56.970;40.998;2023-03-23T22:31:21;98878.75;;;5.15;100.00
42859;BME280;28505;56.970;40.998;2023-03-23T22:36:44;98872.66;;;5.09;100.00
42859;BME280;28505;56.970;40.998;2023-03-23T22:42:06;98865.75;;;5.08;100.00
42859;BME280;28505;56.970;40.998;2023-03-23T22:47:28;98854.66;;;4.96;100.00
42859;BME280;28505;56.970;40.998;2023-03-23T22:52:51;98862.72;;;4.91;100.00
42859;BME280;28505;56.970;40.998;2023-03-23T22:58:14;98842.53;;;4.80;100.00
42859;BME280;28505;56.970;40.998;2023-03-23T23:03:36;98838.38;;;4.68;100.00
42859;BME280;28505;56.970;40.998;2023-03-23T23:09:01;98818.19;;;4.57;100.00
42859;BME280;28505;56.970;40.998;2023-03-23T23:14:44;98781.56;;;4.34;100.00
42859;BME280;28505;56.970;40.998;2023-03-23T23:20:07;98770.41;;;4.32;100.00
42859;BME280;28505;56.970;40.998;2023-03-23T23:25:34;98782.56;;;4.43;100.00
42859;BME280;28505;56.970;40.998;2023-03-23T23:30:57;98764.78;;;4.33;100.00
42859;BME280;28505;56.970;40.998;2023-03-23T23:36:20;98771.88;;;4.43;100.00
42859;BME280;28505;56.970;40.998;2023-03-23T23:41:58;98755.69;;;4.34;100.00
42859;BME280;28505;56.970;40.998;2023-03-23T23:47:21;98754.88;;;4.34;100.00
42859;BME280;28505;56.970;40.998;2023-03-23T23:52:46;98736.78;;;4.31;100.00
42859;BME280;28505;56.970;40.998;2023-03-23T23:58:10;98712.88;;;4.20;100.00
